BIIS

Ísafjörður Airport

Ísafjörður, Iceland
METAR BIIS 191800Z 03012KT 3000 SN OVC014 M00/M03 Q1002
Observed Flight Rules
Jan-19 @ 18:00 UTC (13 hours ago) Instrument Flight Rules
Wind Visibility Clouds Conditions
30° at 12 knots 2,993 meters
  • Overcast at 1,400' AGL
  • Snow
Temperatures Readings
Current 0°C / 32°F
Dewpoint -3°C / 27°F
Humidity 80%
Altimeter 29.59" Hg
Pressure 1002 hPa
Elevation 3
METAR BIIS 191800Z 03012KT 3000 SN OVC014 M00/M03 Q1002
Observed Flight Rules
Jan-19 @ 18:00 UTC
(13 hours ago)
IFR
Wind Visibility
30° at 12 knots 2,993 meters
Clouds
  • Overcast at 1,400' AGL
Conditions
  • Snow
Temperature Dewpoint
0°C / 32°F -3°C / 27°F
Humidity Altimeter Pressure
80% 29.59" Hg 1002 hPa